POB weather

Pope Field
Fayetteville, North Carolina, United States

Public forecast

Using degrees Fahrenheit for public forecast. Weather courtesy of forecast.io.

METAR (pilot weather report)

Retrieved 2019/09/17 04:56 UTC (31 minutes ago):

KPOB 170456Z AUTO 00000KT 10SM CLR 20/19 A2997 RMK AO2 SLP150 T02040190 403180202 $

TAF (pilot weather forecast)

Retrieved 2019/09/17 01:06 UTC (4 hours ago):

TAF KPOB 170100Z 1701/1807 05009KT 9999 SCT030 QNH2994INS BECMG 1709/1710 05004KT 8000 BR BKN008 QNH2992INS BECMG 1712/1713 05009KT 9999 NSW SCT040 QNH2992INS TX33/1720Z TN19/1711Z